sensor_id;sensor_type;location;lat;lon;timestamp;P1;durP1;ratioP1;P2;durP2;ratioP2
76854;SDS011;66343;44.588;33.450;2023-07-28T00:02:41;8.18;;;2.25;;
76854;SDS011;66343;44.588;33.450;2023-07-28T00:05:10;7.15;;;2.22;;
76854;SDS011;66343;44.588;33.450;2023-07-28T00:07:39;9.05;;;2.53;;
76854;SDS011;66343;44.588;33.450;2023-07-28T00:10:11;7.18;;;2.80;;
76854;SDS011;66343;44.588;33.450;2023-07-28T00:12:43;7.15;;;2.53;;
76854;SDS011;66343;44.588;33.450;2023-07-28T00:15:17;7.22;;;2.53;;
76854;SDS011;66343;44.588;33.450;2023-07-28T00:17:56;8.63;;;2.85;;
76854;SDS011;66343;44.588;33.450;2023-07-28T00:20:33;8.27;;;3.22;;
76854;SDS011;66343;44.588;33.450;2023-07-28T00:23:02;7.53;;;2.75;;
76854;SDS011;66343;44.588;33.450;2023-07-28T00:25:31;7.85;;;2.67;;
76854;SDS011;66343;44.588;33.450;2023-07-28T00:28:03;8.20;;;2.60;;
76854;SDS011;66343;44.588;33.450;2023-07-28T00:30:40;13.23;;;3.13;;
76854;SDS011;66343;44.588;33.450;2023-07-28T00:33:13;9.20;;;2.47;;
76854;SDS011;66343;44.588;33.450;2023-07-28T00:35:45;15.48;;;3.47;;
76854;SDS011;66343;44.588;33.450;2023-07-28T00:38:17;10.68;;;2.83;;
76854;SDS011;66343;44.588;33.450;2023-07-28T00:40:46;7.55;;;2.15;;
76854;SDS011;66343;44.588;33.450;2023-07-28T00:43:18;9.38;;;2.10;;
76854;SDS011;66343;44.588;33.450;2023-07-28T00:45:50;9.48;;;2.25;;
76854;SDS011;66343;44.588;33.450;2023-07-28T00:50:55;7.28;;;1.98;;
76854;SDS011;66343;44.588;33.450;2023-07-28T00:53:29;6.93;;;1.83;;
76854;SDS011;66343;44.588;33.450;2023-07-28T00:56:03;5.35;;;1.73;;
76854;SDS011;66343;44.588;33.450;2023-07-28T00:58:37;8.95;;;1.75;;
76854;SDS011;66343;44.588;33.450;2023-07-28T01:01:13;5.32;;;1.70;;
76854;SDS011;66343;44.588;33.450;2023-07-28T01:03:51;10.35;;;2.40;;
76854;SDS011;66343;44.588;33.450;2023-07-28T01:09:16;11.73;;;2.10;;
76854;SDS011;66343;44.588;33.450;2023-07-28T01:11:58;9.73;;;1.88;;
76854;SDS011;66343;44.588;33.450;2023-07-28T01:14:33;8.10;;;1.85;;
76854;SDS011;66343;44.588;33.450;2023-07-28T01:17:02;6.80;;;1.90;;
76854;SDS011;66343;44.588;33.450;2023-07-28T01:19:37;12.00;;;2.58;;
76854;SDS011;66343;44.588;33.450;2023-07-28T01:27:58;8.88;;;1.80;;
76854;SDS011;66343;44.588;33.450;2023-07-28T01:30:29;7.18;;;2.00;;
76854;SDS011;66343;44.588;33.450;2023-07-28T01:33:05;6.63;;;1.55;;
76854;SDS011;66343;44.588;33.450;2023-07-28T01:35:40;6.93;;;1.92;;
76854;SDS011;66343;44.588;33.450;2023-07-28T01:38:13;7.18;;;1.83;;
76854;SDS011;66343;44.588;33.450;2023-07-28T01:40:48;6.93;;;1.60;;
76854;SDS011;66343;44.588;33.450;2023-07-28T01:43:21;5.10;;;1.33;;
76854;SDS011;66343;44.588;33.450;2023-07-28T01:45:50;7.07;;;1.95;;
76854;SDS011;66343;44.588;33.450;2023-07-28T01:48:22;5.22;;;1.40;;
76854;SDS011;66343;44.588;33.450;2023-07-28T01:50:51;7.20;;;1.85;;
76854;SDS011;66343;44.588;33.450;2023-07-28T01:53:20;8.63;;;1.48;;
76854;SDS011;66343;44.588;33.450;2023-07-28T01:56:00;8.82;;;1.40;;
76854;SDS011;66343;44.588;33.450;2023-07-28T01:58:35;14.48;;;2.03;;
76854;SDS011;66343;44.588;33.450;2023-07-28T02:01:05;6.78;;;2.17;;
76854;SDS011;66343;44.588;33.450;2023-07-28T02:03:34;9.75;;;1.73;;
76854;SDS011;66343;44.588;33.450;2023-07-28T02:06:11;10.52;;;2.33;;
76854;SDS011;66343;44.588;33.450;2023-07-28T02:08:40;10.30;;;1.77;;
76854;SDS011;66343;44.588;33.450;2023-07-28T02:11:14;9.27;;;1.85;;
76854;SDS011;66343;44.588;33.450;2023-07-28T02:13:47;6.65;;;1.67;;
76854;SDS011;66343;44.588;33.450;2023-07-28T02:16:18;10.85;;;1.85;;
76854;SDS011;66343;44.588;33.450;2023-07-28T02:18:48;7.85;;;1.70;;
76854;SDS011;66343;44.588;33.450;2023-07-28T02:21:19;7.00;;;1.67;;
76854;SDS011;66343;44.588;33.450;2023-07-28T02:23:51;7.70;;;1.50;;
76854;SDS011;66343;44.588;33.450;2023-07-28T02:26:25;8.32;;;1.90;;
76854;SDS011;66343;44.588;33.450;2023-07-28T02:28:59;6.50;;;1.55;;
76854;SDS011;66343;44.588;33.450;2023-07-28T02:31:36;10.25;;;1.80;;
76854;SDS011;66343;44.588;33.450;2023-07-28T02:34:08;9.48;;;1.88;;
76854;SDS011;66343;44.588;33.450;2023-07-28T02:36:37;9.30;;;2.00;;
76854;SDS011;66343;44.588;33.450;2023-07-28T02:39:09;6.00;;;1.50;;
76854;SDS011;66343;44.588;33.450;2023-07-28T02:41:41;7.63;;;1.70;;
76854;SDS011;66343;44.588;33.450;2023-07-28T02:44:13;7.93;;;1.67;;
76854;SDS011;66343;44.588;33.450;2023-07-28T02:46:45;8.27;;;1.77;;
76854;SDS011;66343;44.588;33.450;2023-07-28T02:49:15;5.55;;;1.45;;
76854;SDS011;66343;44.588;33.450;2023-07-28T02:51:44;6.43;;;1.50;;
76854;SDS011;66343;44.588;33.450;2023-07-28T02:54:14;10.68;;;1.55;;
76854;SDS011;66343;44.588;33.450;2023-07-28T02:56:54;6.00;;;1.80;;
76854;SDS011;66343;44.588;33.450;2023-07-28T02:59:25;8.10;;;1.30;;
76854;SDS011;66343;44.588;33.450;2023-07-28T03:01:58;8.13;;;1.88;;
76854;SDS011;66343;44.588;33.450;2023-07-28T03:04:31;5.75;;;1.50;;
76854;SDS011;66343;44.588;33.450;2023-07-28T03:07:17;7.25;;;1.25;;
76854;SDS011;66343;44.588;33.450;2023-07-28T03:09:54;4.25;;;1.20;;
76854;SDS011;66343;44.588;33.450;2023-07-28T03:12:26;7.05;;;1.50;;
76854;SDS011;66343;44.588;33.450;2023-07-28T03:15:00;9.05;;;1.80;;
76854;SDS011;66343;44.588;33.450;2023-07-28T03:17:33;6.40;;;1.35;;
76854;SDS011;66343;44.588;33.450;2023-07-28T03:20:09;7.30;;;1.58;;
76854;SDS011;66343;44.588;33.450;2023-07-28T03:22:44;5.75;;;1.40;;
76854;SDS011;66343;44.588;33.450;2023-07-28T03:25:13;4.03;;;1.30;;
76854;SDS011;66343;44.588;33.450;2023-07-28T03:30:22;5.35;;;1.35;;
76854;SDS011;66343;44.588;33.450;2023-07-28T03:32:54;4.50;;;1.23;;
76854;SDS011;66343;44.588;33.450;2023-07-28T03:35:27;5.53;;;1.42;;
76854;SDS011;66343;44.588;33.450;2023-07-28T03:38:09;7.57;;;1.80;;
76854;SDS011;66343;44.588;33.450;2023-07-28T03:40:41;4.95;;;1.48;;
76854;SDS011;66343;44.588;33.450;2023-07-28T03:45:42;5.97;;;1.60;;
76854;SDS011;66343;44.588;33.450;2023-07-28T03:48:18;6.43;;;1.50;;
76854;SDS011;66343;44.588;33.450;2023-07-28T03:50:47;8.60;;;1.58;;
76854;SDS011;66343;44.588;33.450;2023-07-28T03:53:21;7.57;;;1.60;;
76854;SDS011;66343;44.588;33.450;2023-07-28T03:55:53;8.55;;;1.85;;
76854;SDS011;66343;44.588;33.450;2023-07-28T03:58:26;8.70;;;1.88;;
76854;SDS011;66343;44.588;33.450;2023-07-28T04:01:05;6.13;;;1.38;;
76854;SDS011;66343;44.588;33.450;2023-07-28T04:03:41;5.88;;;1.50;;
76854;SDS011;66343;44.588;33.450;2023-07-28T04:06:11;6.00;;;1.60;;
76854;SDS011;66343;44.588;33.450;2023-07-28T04:08:41;8.05;;;1.88;;
76854;SDS011;66343;44.588;33.450;2023-07-28T04:11:12;9.40;;;1.85;;
76854;SDS011;66343;44.588;33.450;2023-07-28T04:13:44;7.60;;;1.60;;
76854;SDS011;66343;44.588;33.450;2023-07-28T04:16:17;6.53;;;1.63;;
76854;SDS011;66343;44.588;33.450;2023-07-28T04:18:52;7.40;;;1.52;;
76854;SDS011;66343;44.588;33.450;2023-07-28T04:21:24;5.95;;;1.48;;
76854;SDS011;66343;44.588;33.450;2023-07-28T04:24:00;6.85;;;1.50;;
76854;SDS011;66343;44.588;33.450;2023-07-28T04:26:29;6.75;;;1.30;;
76854;SDS011;66343;44.588;33.450;2023-07-28T04:29:09;7.03;;;1.48;;
76854;SDS011;66343;44.588;33.450;2023-07-28T04:31:41;8.10;;;1.70;;
76854;SDS011;66343;44.588;33.450;2023-07-28T04:34:20;9.02;;;1.50;;
76854;SDS011;66343;44.588;33.450;2023-07-28T04:37:06;11.25;;;2.22;;
76854;SDS011;66343;44.588;33.450;2023-07-28T04:39:47;8.85;;;1.85;;
76854;SDS011;66343;44.588;33.450;2023-07-28T04:42:17;8.85;;;1.77;;
76854;SDS011;66343;44.588;33.450;2023-07-28T04:44:48;7.80;;;1.40;;
76854;SDS011;66343;44.588;33.450;2023-07-28T04:47:20;7.22;;;1.63;;
76854;SDS011;66343;44.588;33.450;2023-07-28T04:49:54;10.20;;;1.70;;
76854;SDS011;66343;44.588;33.450;2023-07-28T04:52:42;8.05;;;1.65;;
76854;SDS011;66343;44.588;33.450;2023-07-28T04:55:29;8.07;;;1.73;;
76854;SDS011;66343;44.588;33.450;2023-07-28T04:58:01;9.05;;;2.17;;
76854;SDS011;66343;44.588;33.450;2023-07-28T05:00:42;9.60;;;1.70;;
76854;SDS011;66343;44.588;33.450;2023-07-28T05:03:33;10.23;;;1.50;;
76854;SDS011;66343;44.588;33.450;2023-07-28T05:06:18;5.50;;;1.75;;
76854;SDS011;66343;44.588;33.450;2023-07-28T05:08:50;9.20;;;1.48;;
76854;SDS011;66343;44.588;33.450;2023-07-28T05:11:31;7.75;;;1.80;;
76854;SDS011;66343;44.588;33.450;2023-07-28T05:14:04;8.82;;;1.98;;
76854;SDS011;66343;44.588;33.450;2023-07-28T05:16:38;10.48;;;2.10;;
76854;SDS011;66343;44.588;33.450;2023-07-28T05:19:10;9.05;;;2.03;;
76854;SDS011;66343;44.588;33.450;2023-07-28T05:21:43;11.10;;;2.05;;
76854;SDS011;66343;44.588;33.450;2023-07-28T05:24:17;8.55;;;1.77;;
76854;SDS011;66343;44.588;33.450;2023-07-28T05:26:46;6.18;;;1.70;;
76854;SDS011;66343;44.588;33.450;2023-07-28T05:29:16;6.18;;;1.40;;
76854;SDS011;66343;44.588;33.450;2023-07-28T05:31:49;7.53;;;1.50;;
76854;SDS011;66343;44.588;33.450;2023-07-28T05:34:32;6.68;;;1.52;;
76854;SDS011;66343;44.588;33.450;2023-07-28T05:37:01;6.28;;;1.60;;
76854;SDS011;66343;44.588;33.450;2023-07-28T05:39:52;7.18;;;1.23;;
76854;SDS011;66343;44.588;33.450;2023-07-28T05:42:24;7.38;;;1.58;;
76854;SDS011;66343;44.588;33.450;2023-07-28T05:44:55;7.38;;;1.55;;
76854;SDS011;66343;44.588;33.450;2023-07-28T05:47:30;7.80;;;1.77;;
76854;SDS011;66343;44.588;33.450;2023-07-28T05:50:04;5.80;;;1.30;;
76854;SDS011;66343;44.588;33.450;2023-07-28T05:52:34;7.68;;;1.40;;
76854;SDS011;66343;44.588;33.450;2023-07-28T05:55:05;6.65;;;1.27;;
76854;SDS011;66343;44.588;33.450;2023-07-28T05:57:39;7.03;;;1.30;;
76854;SDS011;66343;44.588;33.450;2023-07-28T06:02:40;5.65;;;1.10;;
76854;SDS011;66343;44.588;33.450;2023-07-28T06:05:18;7.40;;;1.55;;
76854;SDS011;66343;44.588;33.450;2023-07-28T06:07:47;6.82;;;1.70;;
76854;SDS011;66343;44.588;33.450;2023-07-28T06:10:19;8.57;;;1.42;;
76854;SDS011;66343;44.588;33.450;2023-07-28T06:12:48;6.68;;;1.35;;
76854;SDS011;66343;44.588;33.450;2023-07-28T06:15:20;8.77;;;1.33;;
76854;SDS011;66343;44.588;33.450;2023-07-28T06:17:49;8.13;;;1.77;;
76854;SDS011;66343;44.588;33.450;2023-07-28T06:20:20;4.78;;;1.13;;
76854;SDS011;66343;44.588;33.450;2023-07-28T06:22:49;5.60;;;1.38;;
76854;SDS011;66343;44.588;33.450;2023-07-28T06:25:27;5.93;;;1.10;;
76854;SDS011;66343;44.588;33.450;2023-07-28T06:27:57;3.45;;;0.88;;
76854;SDS011;66343;44.588;33.450;2023-07-28T06:30:35;4.15;;;1.05;;
76854;SDS011;66343;44.588;33.450;2023-07-28T06:33:08;4.30;;;1.10;;
76854;SDS011;66343;44.588;33.450;2023-07-28T06:35:40;4.07;;;1.58;;
76854;SDS011;66343;44.588;33.450;2023-07-28T06:38:10;6.40;;;1.40;;
76854;SDS011;66343;44.588;33.450;2023-07-28T06:40:46;6.53;;;1.38;;
76854;SDS011;66343;44.588;33.450;2023-07-28T06:45:52;6.13;;;1.40;;
76854;SDS011;66343;44.588;33.450;2023-07-28T06:48:23;6.20;;;1.33;;
76854;SDS011;66343;44.588;33.450;2023-07-28T06:51:08;7.00;;;1.42;;
76854;SDS011;66343;44.588;33.450;2023-07-28T06:53:38;8.13;;;1.48;;
76854;SDS011;66343;44.588;33.450;2023-07-28T06:56:10;7.35;;;1.80;;
76854;SDS011;66343;44.588;33.450;2023-07-28T06:58:40;6.40;;;1.17;;
76854;SDS011;66343;44.588;33.450;2023-07-28T07:01:18;6.15;;;1.30;;
76854;SDS011;66343;44.588;33.450;2023-07-28T07:03:53;8.68;;;1.75;;
76854;SDS011;66343;44.588;33.450;2023-07-28T07:06:30;6.10;;;1.35;;
76854;SDS011;66343;44.588;33.450;2023-07-28T07:09:06;5.65;;;1.13;;
76854;SDS011;66343;44.588;33.450;2023-07-28T07:11:37;6.32;;;1.40;;
76854;SDS011;66343;44.588;33.450;2023-07-28T07:14:07;8.75;;;1.65;;
76854;SDS011;66343;44.588;33.450;2023-07-28T07:16:41;9.13;;;1.55;;
76854;SDS011;66343;44.588;33.450;2023-07-28T07:19:18;10.25;;;1.75;;
76854;SDS011;66343;44.588;33.450;2023-07-28T07:24:19;6.22;;;1.40;;
76854;SDS011;66343;44.588;33.450;2023-07-28T07:26:50;7.30;;;1.30;;
76854;SDS011;66343;44.588;33.450;2023-07-28T07:29:22;6.63;;;1.70;;
76854;SDS011;66343;44.588;33.450;2023-07-28T07:31:54;7.32;;;1.50;;
76854;SDS011;66343;44.588;33.450;2023-07-28T07:34:29;4.88;;;1.30;;
76854;SDS011;66343;44.588;33.450;2023-07-28T07:37:01;7.53;;;1.20;;
76854;SDS011;66343;44.588;33.450;2023-07-28T07:39:31;8.00;;;1.48;;
76854;SDS011;66343;44.588;33.450;2023-07-28T07:42:03;7.82;;;1.55;;
76854;SDS011;66343;44.588;33.450;2023-07-28T07:44:34;4.72;;;1.20;;
76854;SDS011;66343;44.588;33.450;2023-07-28T07:47:16;7.68;;;1.50;;
76854;SDS011;66343;44.588;33.450;2023-07-28T07:49:49;4.70;;;1.10;;
76854;SDS011;66343;44.588;33.450;2023-07-28T07:52:20;7.35;;;1.52;;
76854;SDS011;66343;44.588;33.450;2023-07-28T07:54:54;6.03;;;1.40;;
76854;SDS011;66343;44.588;33.450;2023-07-28T07:57:26;7.85;;;1.60;;
76854;SDS011;66343;44.588;33.450;2023-07-28T08:02:39;7.00;;;1.40;;
76854;SDS011;66343;44.588;33.450;2023-07-28T08:05:13;6.35;;;1.65;;
76854;SDS011;66343;44.588;33.450;2023-07-28T08:07:46;5.65;;;1.50;;
76854;SDS011;66343;44.588;33.450;2023-07-28T08:10:16;10.75;;;1.88;;
76854;SDS011;66343;44.588;33.450;2023-07-28T08:12:49;6.50;;;1.30;;
76854;SDS011;66343;44.588;33.450;2023-07-28T08:15:19;5.35;;;1.30;;
76854;SDS011;66343;44.588;33.450;2023-07-28T08:17:50;10.68;;;1.70;;
76854;SDS011;66343;44.588;33.450;2023-07-28T08:20:22;6.18;;;1.25;;
76854;SDS011;66343;44.588;33.450;2023-07-28T08:22:54;4.70;;;1.17;;
76854;SDS011;66343;44.588;33.450;2023-07-28T08:25:27;6.40;;;1.15;;
76854;SDS011;66343;44.588;33.450;2023-07-28T08:28:00;5.53;;;1.38;;
76854;SDS011;66343;44.588;33.450;2023-07-28T08:30:30;7.30;;;1.40;;
76854;SDS011;66343;44.588;33.450;2023-07-28T08:33:01;5.90;;;1.40;;
76854;SDS011;66343;44.588;33.450;2023-07-28T08:35:30;6.00;;;1.48;;
76854;SDS011;66343;44.588;33.450;2023-07-28T08:38:02;6.25;;;1.45;;
76854;SDS011;66343;44.588;33.450;2023-07-28T08:40:33;10.40;;;1.50;;
76854;SDS011;66343;44.588;33.450;2023-07-28T08:43:03;4.65;;;1.10;;
76854;SDS011;66343;44.588;33.450;2023-07-28T08:45:35;9.27;;;1.80;;
76854;SDS011;66343;44.588;33.450;2023-07-28T08:48:07;5.85;;;1.20;;
76854;SDS011;66343;44.588;33.450;2023-07-28T08:50:39;6.88;;;1.50;;
76854;SDS011;66343;44.588;33.450;2023-07-28T08:53:09;5.90;;;1.40;;
76854;SDS011;66343;44.588;33.450;2023-07-28T08:55:40;5.78;;;1.10;;
76854;SDS011;66343;44.588;33.450;2023-07-28T08:58:17;6.95;;;1.55;;
76854;SDS011;66343;44.588;33.450;2023-07-28T09:03:19;7.03;;;1.55;;
76854;SDS011;66343;44.588;33.450;2023-07-28T09:06:03;5.78;;;1.50;;
76854;SDS011;66343;44.588;33.450;2023-07-28T09:08:33;5.85;;;1.38;;
76854;SDS011;66343;44.588;33.450;2023-07-28T09:11:06;7.72;;;1.73;;
76854;SDS011;66343;44.588;33.450;2023-07-28T09:13:36;4.82;;;1.00;;
76854;SDS011;66343;44.588;33.450;2023-07-28T09:16:19;6.90;;;1.45;;
76854;SDS011;66343;44.588;33.450;2023-07-28T09:18:49;5.50;;;1.38;;
76854;SDS011;66343;44.588;33.450;2023-07-28T09:21:19;8.50;;;1.60;;
76854;SDS011;66343;44.588;33.450;2023-07-28T09:23:52;7.90;;;1.77;;
76854;SDS011;66343;44.588;33.450;2023-07-28T09:26:22;5.78;;;1.60;;
76854;SDS011;66343;44.588;33.450;2023-07-28T09:28:55;8.15;;;1.48;;
76854;SDS011;66343;44.588;33.450;2023-07-28T09:34:01;10.18;;;1.60;;
76854;SDS011;66343;44.588;33.450;2023-07-28T09:36:31;6.65;;;1.67;;
76854;SDS011;66343;44.588;33.450;2023-07-28T09:39:05;6.05;;;1.50;;
76854;SDS011;66343;44.588;33.450;2023-07-28T09:41:38;5.72;;;1.30;;
76854;SDS011;66343;44.588;33.450;2023-07-28T09:44:08;6.63;;;1.35;;
76854;SDS011;66343;44.588;33.450;2023-07-28T09:46:43;5.78;;;1.30;;
76854;SDS011;66343;44.588;33.450;2023-07-28T09:49:35;9.13;;;1.77;;
76854;SDS011;66343;44.588;33.450;2023-07-28T09:52:10;6.80;;;1.60;;
76854;SDS011;66343;44.588;33.450;2023-07-28T09:54:50;6.40;;;1.55;;
76854;SDS011;66343;44.588;33.450;2023-07-28T09:57:26;5.95;;;1.50;;
76854;SDS011;66343;44.588;33.450;2023-07-28T09:59:57;6.82;;;1.60;;
76854;SDS011;66343;44.588;33.450;2023-07-28T10:02:39;8.15;;;1.52;;
76854;SDS011;66343;44.588;33.450;2023-07-28T10:05:29;8.23;;;2.00;;
76854;SDS011;66343;44.588;33.450;2023-07-28T10:08:04;7.47;;;1.65;;
76854;SDS011;66343;44.588;33.450;2023-07-28T10:10:35;7.18;;;1.65;;
76854;SDS011;66343;44.588;33.450;2023-07-28T10:13:18;8.95;;;1.50;;
76854;SDS011;66343;44.588;33.450;2023-07-28T10:15:52;6.88;;;1.30;;
76854;SDS011;66343;44.588;33.450;2023-07-28T10:18:26;5.13;;;1.25;;
76854;SDS011;66343;44.588;33.450;2023-07-28T10:21:10;8.27;;;1.63;;
76854;SDS011;66343;44.588;33.450;2023-07-28T10:23:57;8.23;;;1.67;;
76854;SDS011;66343;44.588;33.450;2023-07-28T10:26:39;6.88;;;1.80;;
76854;SDS011;66343;44.588;33.450;2023-07-28T10:29:14;7.07;;;1.38;;
76854;SDS011;66343;44.588;33.450;2023-07-28T10:31:54;6.30;;;1.52;;
76854;SDS011;66343;44.588;33.450;2023-07-28T10:34:27;7.50;;;1.55;;
76854;SDS011;66343;44.588;33.450;2023-07-28T10:37:00;6.80;;;1.65;;
76854;SDS011;66343;44.588;33.450;2023-07-28T10:39:34;7.88;;;1.63;;
76854;SDS011;66343;44.588;33.450;2023-07-28T10:42:10;8.02;;;1.50;;
76854;SDS011;66343;44.588;33.450;2023-07-28T10:44:52;6.20;;;1.05;;
76854;SDS011;66343;44.588;33.450;2023-07-28T10:47:22;6.15;;;1.70;;
76854;SDS011;66343;44.588;33.450;2023-07-28T10:49:55;6.93;;;1.40;;
76854;SDS011;66343;44.588;33.450;2023-07-28T10:52:27;4.80;;;1.20;;
76854;SDS011;66343;44.588;33.450;2023-07-28T10:54:57;6.72;;;1.67;;
76854;SDS011;66343;44.588;33.450;2023-07-28T10:57:29;7.18;;;1.50;;
76854;SDS011;66343;44.588;33.450;2023-07-28T11:00:00;7.13;;;1.33;;
76854;SDS011;66343;44.588;33.450;2023-07-28T11:02:32;4.10;;;1.05;;
76854;SDS011;66343;44.588;33.450;2023-07-28T11:05:09;6.32;;;1.52;;
76854;SDS011;66343;44.588;33.450;2023-07-28T11:07:43;7.53;;;1.38;;
76854;SDS011;66343;44.588;33.450;2023-07-28T11:10:16;6.65;;;1.45;;
76854;SDS011;66343;44.588;33.450;2023-07-28T11:12:50;5.55;;;1.30;;
76854;SDS011;66343;44.588;33.450;2023-07-28T11:15:24;6.30;;;1.40;;
76854;SDS011;66343;44.588;33.450;2023-07-28T11:18:10;4.82;;;1.50;;
76854;SDS011;66343;44.588;33.450;2023-07-28T11:20:40;6.03;;;1.42;;
76854;SDS011;66343;44.588;33.450;2023-07-28T11:23:13;5.55;;;1.38;;
76854;SDS011;66343;44.588;33.450;2023-07-28T11:25:43;8.77;;;1.40;;
76854;SDS011;66343;44.588;33.450;2023-07-28T11:28:16;4.85;;;1.23;;
76854;SDS011;66343;44.588;33.450;2023-07-28T11:30:51;5.72;;;1.42;;
76854;SDS011;66343;44.588;33.450;2023-07-28T11:33:24;6.30;;;1.50;;
76854;SDS011;66343;44.588;33.450;2023-07-28T11:35:54;5.88;;;1.20;;
76854;SDS011;66343;44.588;33.450;2023-07-28T11:38:25;9.05;;;1.77;;
76854;SDS011;66343;44.588;33.450;2023-07-28T11:40:56;10.55;;;1.80;;
76854;SDS011;66343;44.588;33.450;2023-07-28T11:43:38;8.50;;;1.75;;
76854;SDS011;66343;44.588;33.450;2023-07-28T11:46:31;5.93;;;1.63;;
76854;SDS011;66343;44.588;33.450;2023-07-28T11:49:15;6.53;;;1.60;;
76854;SDS011;66343;44.588;33.450;2023-07-28T11:51:54;9.80;;;1.90;;
76854;SDS011;66343;44.588;33.450;2023-07-28T11:54:26;5.95;;;1.58;;
76854;SDS011;66343;44.588;33.450;2023-07-28T11:56:56;5.43;;;1.63;;
76854;SDS011;66343;44.588;33.450;2023-07-28T11:59:27;7.35;;;1.63;;
76854;SDS011;66343;44.588;33.450;2023-07-28T12:04:39;8.35;;;1.60;;
76854;SDS011;66343;44.588;33.450;2023-07-28T12:07:14;6.57;;;1.40;;
76854;SDS011;66343;44.588;33.450;2023-07-28T12:12:41;5.95;;;1.70;;
76854;SDS011;66343;44.588;33.450;2023-07-28T12:15:20;8.15;;;1.83;;
76854;SDS011;66343;44.588;33.450;2023-07-28T12:18:07;8.57;;;1.83;;
76854;SDS011;66343;44.588;33.450;2023-07-28T12:20:47;7.32;;;1.80;;
76854;SDS011;66343;44.588;33.450;2023-07-28T12:23:22;7.00;;;1.90;;
76854;SDS011;66343;44.588;33.450;2023-07-28T12:26:05;9.32;;;2.08;;
76854;SDS011;66343;44.588;33.450;2023-07-28T12:28:37;7.57;;;1.73;;
76854;SDS011;66343;44.588;33.450;2023-07-28T12:31:17;6.63;;;1.58;;
76854;SDS011;66343;44.588;33.450;2023-07-28T12:33:49;8.73;;;2.03;;
76854;SDS011;66343;44.588;33.450;2023-07-28T12:36:37;7.50;;;1.98;;
76854;SDS011;66343;44.588;33.450;2023-07-28T12:39:10;5.93;;;1.88;;
76854;SDS011;66343;44.588;33.450;2023-07-28T12:41:45;6.50;;;2.10;;
76854;SDS011;66343;44.588;33.450;2023-07-28T12:44:36;7.63;;;2.20;;
76854;SDS011;66343;44.588;33.450;2023-07-28T12:47:09;6.90;;;1.98;;
76854;SDS011;66343;44.588;33.450;2023-07-28T12:49:44;10.00;;;2.60;;
76854;SDS011;66343;44.588;33.450;2023-07-28T12:52:19;9.77;;;2.35;;
76854;SDS011;66343;44.588;33.450;2023-07-28T12:55:13;7.95;;;1.73;;
76854;SDS011;66343;44.588;33.450;2023-07-28T12:57:47;8.50;;;1.90;;
76854;SDS011;66343;44.588;33.450;2023-07-28T13:00:24;7.68;;;2.22;;
76854;SDS011;66343;44.588;33.450;2023-07-28T13:02:57;7.95;;;1.90;;
76854;SDS011;66343;44.588;33.450;2023-07-28T13:05:30;8.73;;;2.20;;
76854;SDS011;66343;44.588;33.450;2023-07-28T13:08:00;7.22;;;1.90;;
76854;SDS011;66343;44.588;33.450;2023-07-28T13:10:33;8.00;;;2.08;;
76854;SDS011;66343;44.588;33.450;2023-07-28T13:13:10;8.52;;;2.45;;
76854;SDS011;66343;44.588;33.450;2023-07-28T13:15:41;7.32;;;2.03;;
76854;SDS011;66343;44.588;33.450;2023-07-28T13:18:12;8.77;;;2.05;;
76854;SDS011;66343;44.588;33.450;2023-07-28T13:20:42;9.80;;;2.10;;
76854;SDS011;66343;44.588;33.450;2023-07-28T13:23:14;7.78;;;2.20;;
76854;SDS011;66343;44.588;33.450;2023-07-28T13:28:19;5.05;;;1.80;;
76854;SDS011;66343;44.588;33.450;2023-07-28T13:30:52;5.10;;;1.63;;
76854;SDS011;66343;44.588;33.450;2023-07-28T13:33:24;7.68;;;2.00;;
76854;SDS011;66343;44.588;33.450;2023-07-28T13:35:56;7.00;;;2.13;;
76854;SDS011;66343;44.588;33.450;2023-07-28T13:38:26;5.45;;;1.67;;
76854;SDS011;66343;44.588;33.450;2023-07-28T13:40:56;8.02;;;1.92;;
76854;SDS011;66343;44.588;33.450;2023-07-28T13:43:31;8.23;;;2.17;;
76854;SDS011;66343;44.588;33.450;2023-07-28T13:46:11;5.93;;;2.13;;
76854;SDS011;66343;44.588;33.450;2023-07-28T13:48:44;7.35;;;2.22;;
76854;SDS011;66343;44.588;33.450;2023-07-28T13:51:20;7.18;;;2.00;;
76854;SDS011;66343;44.588;33.450;2023-07-28T13:54:10;7.25;;;2.10;;
76854;SDS011;66343;44.588;33.450;2023-07-28T13:56:44;6.53;;;2.00;;
76854;SDS011;66343;44.588;33.450;2023-07-28T13:59:18;7.55;;;1.90;;
76854;SDS011;66343;44.588;33.450;2023-07-28T14:01:49;7.43;;;2.15;;
76854;SDS011;66343;44.588;33.450;2023-07-28T14:04:22;8.02;;;2.20;;
76854;SDS011;66343;44.588;33.450;2023-07-28T14:06:54;5.57;;;2.00;;
76854;SDS011;66343;44.588;33.450;2023-07-28T14:09:28;5.10;;;1.75;;
76854;SDS011;66343;44.588;33.450;2023-07-28T14:12:06;8.23;;;2.20;;
76854;SDS011;66343;44.588;33.450;2023-07-28T14:14:43;10.18;;;2.00;;
76854;SDS011;66343;44.588;33.450;2023-07-28T14:17:17;7.45;;;2.25;;
76854;SDS011;66343;44.588;33.450;2023-07-28T14:19:53;7.97;;;2.10;;
76854;SDS011;66343;44.588;33.450;2023-07-28T14:22:27;10.02;;;2.17;;
76854;SDS011;66343;44.588;33.450;2023-07-28T14:25:02;7.72;;;2.10;;
76854;SDS011;66343;44.588;33.450;2023-07-28T14:27:32;7.63;;;2.10;;
76854;SDS011;66343;44.588;33.450;2023-07-28T14:30:09;9.80;;;1.90;;
76854;SDS011;66343;44.588;33.450;2023-07-28T14:32:41;6.53;;;1.85;;
76854;SDS011;66343;44.588;33.450;2023-07-28T14:35:12;6.57;;;1.67;;
76854;SDS011;66343;44.588;33.450;2023-07-28T14:37:44;9.25;;;2.00;;
76854;SDS011;66343;44.588;33.450;2023-07-28T14:40:14;5.47;;;1.75;;
76854;SDS011;66343;44.588;33.450;2023-07-28T14:42:45;6.70;;;2.00;;
76854;SDS011;66343;44.588;33.450;2023-07-28T14:45:17;8.23;;;1.90;;
76854;SDS011;66343;44.588;33.450;2023-07-28T14:47:49;8.40;;;2.45;;
76854;SDS011;66343;44.588;33.450;2023-07-28T14:50:24;7.85;;;2.00;;
76854;SDS011;66343;44.588;33.450;2023-07-28T14:52:57;7.22;;;2.08;;
76854;SDS011;66343;44.588;33.450;2023-07-28T14:55:31;8.85;;;2.30;;
76854;SDS011;66343;44.588;33.450;2023-07-28T14:58:01;6.90;;;2.10;;
76854;SDS011;66343;44.588;33.450;2023-07-28T15:00:31;9.93;;;2.17;;
76854;SDS011;66343;44.588;33.450;2023-07-28T15:03:05;6.15;;;1.60;;
76854;SDS011;66343;44.588;33.450;2023-07-28T15:05:39;7.75;;;2.05;;
76854;SDS011;66343;44.588;33.450;2023-07-28T15:08:12;6.47;;;1.90;;
76854;SDS011;66343;44.588;33.450;2023-07-28T15:10:42;7.75;;;2.15;;
76854;SDS011;66343;44.588;33.450;2023-07-28T15:13:16;8.02;;;2.03;;
76854;SDS011;66343;44.588;33.450;2023-07-28T15:15:57;8.55;;;1.95;;
76854;SDS011;66343;44.588;33.450;2023-07-28T15:18:33;6.93;;;2.00;;
76854;SDS011;66343;44.588;33.450;2023-07-28T15:21:06;6.50;;;1.95;;
76854;SDS011;66343;44.588;33.450;2023-07-28T15:23:38;9.02;;;2.17;;
76854;SDS011;66343;44.588;33.450;2023-07-28T15:26:16;6.05;;;1.58;;
76854;SDS011;66343;44.588;33.450;2023-07-28T15:28:52;5.70;;;1.52;;
76854;SDS011;66343;44.588;33.450;2023-07-28T15:31:25;7.05;;;1.80;;
76854;SDS011;66343;44.588;33.450;2023-07-28T15:33:57;8.93;;;2.00;;
76854;SDS011;66343;44.588;33.450;2023-07-28T15:36:30;6.50;;;1.83;;
76854;SDS011;66343;44.588;33.450;2023-07-28T15:39:03;6.28;;;1.70;;
76854;SDS011;66343;44.588;33.450;2023-07-28T15:41:39;5.85;;;1.88;;
76854;SDS011;66343;44.588;33.450;2023-07-28T15:44:13;5.50;;;1.98;;
76854;SDS011;66343;44.588;33.450;2023-07-28T15:46:44;9.57;;;2.67;;
76854;SDS011;66343;44.588;33.450;2023-07-28T15:49:21;9.43;;;2.33;;
76854;SDS011;66343;44.588;33.450;2023-07-28T15:51:52;7.22;;;1.75;;
76854;SDS011;66343;44.588;33.450;2023-07-28T15:54:28;7.32;;;1.80;;